createdAt,value
2023-03-06T06:02:57.226Z,86.72
2023-03-06T06:05:34.149Z,86.64
2023-03-06T06:08:04.142Z,86.01
2023-03-06T06:10:41.224Z,85.88
2023-03-06T06:13:18.147Z,86.91
2023-03-06T06:15:48.210Z,86.18
2023-03-06T06:18:28.233Z,86.51
2023-03-06T06:21:05.173Z,86.69
2023-03-06T06:23:35.376Z,86.61
2023-03-06T06:26:14.213Z,87.10
2023-03-06T06:28:44.430Z,87.05
2023-03-06T06:31:23.199Z,87.12
2023-03-06T06:33:56.002Z,87.24
2023-03-06T06:36:33.185Z,87.41
2023-03-06T06:39:10.186Z,87.69
2023-03-06T06:41:55.280Z,87.29
2023-03-06T06:44:36.188Z,87.13
2023-03-06T06:47:23.001Z,87.19
2023-03-06T06:49:59.011Z,87.63
2023-03-06T06:52:36.244Z,87.90
2023-03-06T06:55:06.539Z,87.77
2023-03-06T06:57:43.246Z,88.06
2023-03-06T07:00:24.232Z,88.32
2023-03-06T07:02:54.389Z,88.04
2023-03-06T07:05:33.522Z,88.67
2023-03-06T07:08:10.271Z,88.07
2023-03-06T07:10:43.487Z,88.42
2023-03-06T07:13:20.363Z,88.68
2023-03-06T07:15:57.297Z,88.16
2023-03-06T07:18:27.501Z,88.77
2023-03-06T07:21:07.300Z,88.41
2023-03-06T07:23:44.243Z,88.93
2023-03-06T07:26:14.440Z,88.79
2023-03-06T07:28:52.943Z,88.76
2023-03-06T07:31:31.383Z,89.11
2023-03-06T07:34:04.445Z,89.21
2023-03-06T07:36:47.301Z,89.57
2023-03-06T07:39:24.326Z,89.40
2023-03-06T07:41:54.610Z,89.60
2023-03-06T07:44:31.331Z,89.96
2023-03-06T07:47:01.348Z,89.90
2023-03-06T07:49:38.314Z,89.30
2023-03-06T07:52:10.982Z,89.33
2023-03-06T07:54:47.350Z,89.76
2023-03-06T07:57:17.343Z,89.68
2023-03-06T07:59:54.367Z,88.60
2023-03-06T08:02:24.516Z,88.96
2023-03-06T08:05:04.296Z,89.01
2023-03-06T08:07:44.316Z,89.55
2023-03-06T08:10:18.308Z,89.66
2023-03-06T08:12:54.382Z,89.29
2023-03-06T08:15:24.422Z,88.80
2023-03-06T08:18:01.346Z,87.99
2023-03-06T08:20:38.324Z,87.39
2023-03-06T08:23:12.001Z,87.63
2023-03-06T08:25:48.394Z,86.49
2023-03-06T08:28:25.344Z,85.74
2023-03-06T08:30:55.406Z,85.17
2023-03-06T08:33:34.395Z,84.48
2023-03-06T08:36:04.453Z,84.35
2023-03-06T08:38:43.446Z,82.90
2023-03-06T08:41:20.480Z,82.21
2023-03-06T08:43:50.917Z,80.79
2023-03-06T08:46:30.343Z,79.65
2023-03-06T08:49:07.371Z,78.46
2023-03-06T08:51:37.443Z,76.11
2023-03-06T08:54:16.378Z,75.18
2023-03-06T08:56:46.443Z,73.20
2023-03-06T08:59:23.367Z,70.76
2023-03-06T09:02:00.483Z,68.92
2023-03-06T09:04:33.812Z,66.61
2023-03-06T09:07:10.376Z,64.76
2023-03-06T09:09:43.036Z,63.06
2023-03-06T09:12:19.401Z,61.36
2023-03-06T09:14:49.436Z,59.94
2023-03-06T09:17:26.450Z,58.13
2023-03-06T09:19:56.598Z,57.01
2023-03-06T09:22:33.404Z,55.47
2023-03-06T09:25:06.945Z,53.63
2023-03-06T09:27:43.461Z,54.23
2023-03-06T09:30:22.516Z,53.46
2023-03-06T09:32:52.563Z,52.46
2023-03-06T09:35:29.532Z,52.93
2023-03-06T09:38:06.437Z,51.41
2023-03-06T09:40:51.678Z,50.95
2023-03-06T09:43:34.463Z,51.64
2023-03-06T09:46:09.508Z,52.04
2023-03-06T09:48:56.440Z,50.65
2023-03-06T09:51:34.243Z,51.78
2023-03-06T09:54:19.484Z,51.67
2023-03-06T09:56:53.422Z,51.86
2023-03-06T09:59:33.456Z,51.77
2023-03-06T10:02:15.593Z,51.99
2023-03-06T10:04:58.510Z,53.17
2023-03-06T10:07:43.690Z,54.20
2023-03-06T10:10:30.506Z,53.80
2023-03-06T10:13:09.258Z,54.11
2023-03-06T10:15:50.613Z,54.11
2023-03-06T10:18:20.926Z,53.88
2023-03-06T10:21:18.478Z,52.44
2023-03-06T10:23:56.769Z,51.62
2023-03-06T10:26:36.597Z,50.79
2023-03-06T10:30:00.109Z,49.79
2023-03-06T10:32:49.772Z,50.74
2023-03-06T10:35:25.705Z,50.36
2023-03-06T10:38:28.519Z,49.40
2023-03-06T10:41:25.567Z,49.87
2023-03-06T10:44:24.154Z,49.47
2023-03-06T10:47:03.555Z,49.94
2023-03-06T10:49:36.760Z,50.63
2023-03-06T10:52:29.574Z,50.21
2023-03-06T10:55:32.592Z,49.90
2023-03-06T10:58:21.659Z,50.61
2023-03-06T11:01:13.666Z,50.94
2023-03-06T11:03:50.584Z,50.99
2023-03-06T11:06:36.078Z,51.91
2023-03-06T11:09:25.590Z,52.76
2023-03-06T11:12:15.980Z,53.03
2023-03-06T11:14:52.604Z,52.34
2023-03-06T11:17:34.745Z,51.96
2023-03-06T11:20:27.788Z,51.62
2023-03-06T11:23:05.815Z,52.69
2023-03-06T11:25:46.636Z,52.58
2023-03-06T11:28:24.587Z,53.25
2023-03-06T11:31:05.591Z,52.98
2023-03-06T11:33:46.542Z,53.74
2023-03-06T11:36:32.566Z,53.87
2023-03-06T11:39:02.901Z,54.60
2023-03-06T11:42:00.645Z,56.23
2023-03-06T11:44:45.359Z,56.51
2023-03-06T11:47:28.653Z,55.89
2023-03-06T11:50:19.234Z,55.44
2023-03-06T11:53:01.724Z,56.31
2023-03-06T11:55:46.048Z,55.77
2023-03-06T11:59:00.663Z,55.63
2023-03-06T12:01:38.356Z,55.89
2023-03-06T12:04:55.657Z,55.86
2023-03-06T12:07:39.675Z,55.40
2023-03-06T12:10:20.255Z,53.99
2023-03-06T12:13:31.649Z,53.88
2023-03-06T12:16:25.997Z,54.04
2023-03-06T12:19:11.678Z,54.63
2023-03-06T12:21:54.045Z,55.02
2023-03-06T12:25:05.655Z,55.19
2023-03-06T12:27:54.656Z,55.29
2023-03-06T12:30:41.891Z,54.91
2023-03-06T12:33:30.683Z,55.57
2023-03-06T12:36:16.921Z,55.80
2023-03-06T12:39:11.664Z,55.49
2023-03-06T12:42:08.886Z,56.68
2023-03-06T12:45:09.762Z,56.20
2023-03-06T12:47:52.679Z,56.05
2023-03-06T12:50:27.481Z,56.33
2023-03-06T12:53:07.731Z,56.25
2023-03-06T12:55:50.769Z,56.14
2023-03-06T12:58:54.534Z,56.88
2023-03-06T13:02:15.822Z,57.08
2023-03-06T13:05:03.744Z,57.84
2023-03-06T13:08:00.751Z,58.22
2023-03-06T13:10:33.683Z,57.99
2023-03-06T13:13:11.767Z,57.62
2023-03-06T13:15:47.259Z,57.76
2023-03-06T13:19:10.765Z,57.50
2023-03-06T13:22:30.006Z,57.65
2023-03-06T13:25:43.783Z,56.12
2023-03-06T13:28:27.889Z,55.86
2023-03-06T13:31:10.625Z,55.18
2023-03-06T13:34:00.782Z,53.60
2023-03-06T13:36:42.732Z,53.69
2023-03-06T13:39:13.354Z,53.00
2023-03-06T13:42:08.737Z,53.44
2023-03-06T13:44:53.799Z,53.49
2023-03-06T13:48:19.516Z,53.43
2023-03-06T13:50:52.827Z,52.91
2023-03-06T13:54:02.875Z,53.20
2023-03-06T13:57:19.784Z,53.06
2023-03-06T14:00:27.805Z,53.51
